Time;durP1;ratioP1;P1;durP2;ratioP2;P2;SDS_P1;SDS_P2;PMS_P1;PMS_P2;Temp;Humidity;BMP_temperature;BMP_pressure;BME280_temperature;BME280_humidity;BME280_pressure;Samples;Min_cycle;Max_cycle;Signal;HPM_P1;HPM_P2
2023/04/20 00:00:10;;;;;;;0.10;0.10;;;;;;;;;;6241826;22;19984;-95
2023/04/20 00:02:37;;;;;;;0.10;0.10;;;8.90;90.90;;;;;;6242522;22;20060;-94
2023/04/20 00:05:06;;;;;;;0.10;0.10;;;8.70;91.60;;;;;;6243667;22;19993;-96
2023/04/20 00:07:32;;;;;;;0.10;0.10;;;;;;;;;;6236620;22;19988;-93
2023/04/20 00:09:58;;;;;;;0.10;0.10;;;;;;;;;;6244174;22;20006;-95
2023/04/20 00:12:24;;;;;;;0.10;0.10;;;;;;;;;;6242163;22;19993;-93
2023/04/20 00:14:50;;;;;;;0.10;0.10;;;;;;;;;;6242976;22;20011;-95
2023/04/20 00:17:16;;;;;;;0.10;0.10;;;;;;;;;;6243752;22;20008;-95
2023/04/20 00:19:42;;;;;;;0.10;0.10;;;;;;;;;;6241285;22;20524;-95
2023/04/20 00:22:08;;;;;;;0.10;0.10;;;;;;;;;;6242865;22;20019;-95
2023/04/20 00:24:34;;;;;;;0.10;0.10;;;;;;;;;;6242516;22;19996;-94
2023/04/20 00:27:00;;;;;;;0.10;0.10;;;;;;;;;;6239716;22;20015;-96
2023/04/20 00:29:26;;;;;;;0.00;0.00;;;;;;;;;;6241449;22;19993;-95
2023/04/20 00:31:52;;;;;;;0.03;0.03;;;;;;;;;;6241604;22;20032;-95
2023/04/20 00:34:18;;;;;;;0.00;0.00;;;;;;;;;;6243777;22;20000;-95
2023/04/20 00:36:44;;;;;;;0.10;0.10;;;;;;;;;;6239713;22;20012;-94
2023/04/20 00:39:10;;;;;;;0.10;0.10;;;;;;;;;;6241153;22;20056;-95
2023/04/20 00:41:36;;;;;;;0.10;0.10;;;;;;;;;;6241963;22;20055;-96
2023/04/20 00:49:08;;;;;;;0.10;0.10;;;;;;;;;;6277985;22;20027;-90
2023/04/20 00:51:34;;;;;;;0.10;0.10;;;;;;;;;;6249758;22;20065;-88
2023/04/20 00:54:00;;;;;;;0.00;0.00;;;7.90;99.90;;;;;;6249317;22;20150;-89
2023/04/20 00:56:26;;;;;;;0.00;0.00;;;7.90;99.90;;;;;;6256139;22;20762;-89
2023/04/20 00:58:51;;;;;;;0.10;0.10;;;7.80;99.90;;;;;;6282316;22;20065;-88
2023/04/20 02:13:47;;;;;;;0.00;0.00;;;7.40;99.90;;;;;;6277321;22;20012;-91
2023/04/20 02:16:12;;;;;;;0.00;0.00;;;7.60;99.90;;;;;;6256912;23;20020;-92
2023/04/20 02:24:45;;;;;;;0.00;0.00;;;;;;;;;;6257528;22;20333;-90
2023/04/20 02:27:24;;;;;;;0.00;0.00;;;;;;;;;;6256118;23;20060;-90
2023/04/20 02:30:10;;;;;;;0.00;0.00;;;7.50;99.90;;;;;;6258859;23;20018;-91
2023/04/20 02:32:53;;;;;;;0.00;0.00;;;7.50;99.90;;;;;;6257635;23;20012;-92
2023/04/20 02:49:07;;;;;;;0.10;0.10;;;7.20;99.90;;;;;;6264684;23;20074;-90
2023/04/20 03:07:08;;;;;;;0.10;0.10;;;7.10;99.90;;;;;;6278226;22;20024;-88
2023/04/20 03:09:55;;;;;;;0.10;0.10;;;7.00;99.90;;;;;;6248109;22;20023;-90
2023/04/20 03:12:21;;;;;;;0.00;0.00;;;;;;;;;;6262110;22;20007;-86
2023/04/20 03:14:47;;;;;;;0.08;0.08;;;;;;;;;;6278966;22;20393;-89
2023/04/20 03:17:13;;;;;;;0.10;0.10;;;6.90;99.90;;;;;;6281055;22;20041;-88
2023/04/20 03:19:38;;;;;;;0.05;0.05;;;7.00;99.90;;;;;;6277895;22;20014;-87
2023/04/20 03:22:04;;;;;;;0.10;0.10;;;7.00;99.90;;;;;;6275589;22;20003;-89
2023/04/20 03:24:29;;;;;;;0.10;0.10;;;7.00;99.90;;;;;;6274648;22;19999;-87
2023/04/20 03:26:55;;;;;;;0.10;0.10;;;6.90;99.90;;;;;;6277268;22;20054;-88
2023/04/20 03:29:20;;;;;;;0.10;0.10;;;6.80;99.90;;;;;;6277406;22;20027;-88
2023/04/20 03:31:46;;;;;;;0.10;0.10;;;6.90;99.90;;;;;;6276403;22;20075;-89
2023/04/20 03:34:11;;;;;;;0.00;0.00;;;6.90;99.90;;;;;;6276826;22;20059;-87
2023/04/20 03:36:37;;;;;;;0.10;0.10;;;6.90;99.90;;;;;;6275812;22;20474;-87
2023/04/20 03:39:03;;;;;;;0.00;0.00;;;6.80;99.90;;;;;;6276470;22;20078;-87
2023/04/20 03:41:30;;;;;;;0.10;0.10;;;6.80;99.90;;;;;;6275242;22;20072;-88
2023/04/20 03:43:55;;;;;;;0.08;0.08;;;6.80;99.90;;;;;;6277842;22;20014;-89
2023/04/20 03:46:21;;;;;;;0.10;0.10;;;7.00;99.90;;;;;;6277435;22;20031;-88
2023/04/20 03:48:46;;;;;;;0.10;0.10;;;6.70;99.90;;;;;;6276280;22;20011;-87
2023/04/20 03:51:12;;;;;;;0.10;0.10;;;6.60;99.90;;;;;;6277682;22;20025;-88
2023/04/20 03:53:37;;;;;;;0.00;0.00;;;7.30;99.90;;;;;;6279287;22;20048;-86
2023/04/20 03:56:04;;;;;;;0.10;0.10;;;7.40;99.90;;;;;;6277629;22;20030;-88
2023/04/20 03:58:29;;;;;;;0.10;0.10;;;6.70;99.90;;;;;;6279365;22;20003;-88
2023/04/20 04:01:06;;;;;;;0.10;0.10;;;6.70;99.90;;;;;;6305906;22;20070;-88
2023/04/20 04:03:33;;;;;;;0.10;0.10;;;6.70;99.90;;;;;;6277702;22;20089;-90
2023/04/20 04:05:58;;;;;;;0.10;0.10;;;6.90;99.90;;;;;;6276969;22;20015;-89
2023/04/20 04:08:24;;;;;;;0.10;0.10;;;6.70;99.90;;;;;;6280286;22;20099;-89
2023/04/20 04:10:49;;;;;;;0.10;0.10;;;7.50;99.90;;;;;;6279922;22;20003;-88
2023/04/20 04:13:15;;;;;;;0.10;0.10;;;6.70;99.90;;;;;;6281604;22;20003;-88
2023/04/20 04:15:41;;;;;;;0.10;0.10;;;;;;;;;;6280311;22;20006;-88
2023/04/20 04:18:06;;;;;;;0.05;0.05;;;6.80;99.90;;;;;;6281646;22;19999;-89
2023/04/20 04:20:32;;;;;;;0.00;0.00;;;7.10;99.90;;;;;;6280544;22;20007;-87
2023/04/20 04:22:57;;;;;;;0.00;0.00;;;6.80;99.90;;;;;;6281348;22;20381;-87
2023/04/20 04:25:23;;;;;;;0.10;0.10;;;6.70;99.90;;;;;;6280007;22;20003;-89
2023/04/20 04:27:49;;;;;;;0.10;0.10;;;6.70;99.90;;;;;;6280159;22;20003;-90
2023/04/20 04:30:16;;;;;;;0.00;0.00;;;6.70;99.90;;;;;;6305783;22;20007;-88
2023/04/20 04:32:43;;;;;;;0.10;0.10;;;6.50;99.90;;;;;;6278030;22;20006;-85
2023/04/20 04:35:09;;;;;;;0.10;0.10;;;6.50;99.90;;;;;;6278341;22;20090;-87
2023/04/20 04:37:35;;;;;;;0.00;0.00;;;6.40;99.90;;;;;;6276865;22;20004;-88
2023/04/20 04:40:01;;;;;;;0.10;0.10;;;6.40;99.90;;;;;;6278817;22;20094;-88
2023/04/20 04:42:27;;;;;;;0.10;0.10;;;6.50;99.90;;;;;;6308187;22;20031;-89
2023/04/20 04:44:54;;;;;;;0.00;0.00;;;6.70;99.90;;;;;;6280575;22;20031;-89
2023/04/20 04:47:21;;;;;;;0.10;0.10;;;7.80;99.90;;;;;;6279666;22;20450;-88
2023/04/20 04:49:47;;;;;;;0.10;0.10;;;6.80;99.90;;;;;;6279702;22;20011;-88
2023/04/20 04:52:13;;;;;;;0.10;0.10;;;6.70;99.90;;;;;;6279911;22;20011;-87
2023/04/20 04:54:39;;;;;;;0.10;0.10;;;6.70;99.90;;;;;;6278693;22;20418;-88
2023/04/20 04:57:04;;;;;;;0.08;0.08;;;6.80;99.90;;;;;;6280247;22;19999;-87
2023/04/20 04:59:30;;;;;;;0.10;0.10;;;6.80;99.90;;;;;;6279452;22;20073;-88
2023/04/20 05:01:55;;;;;;;0.10;0.10;;;6.80;99.90;;;;;;6278442;22;20030;-88
2023/04/20 05:04:21;;;;;;;0.10;0.10;;;;;;;;;;6304758;22;20003;-88
2023/04/20 05:06:47;;;;;;;0.10;0.10;;;6.80;99.90;;;;;;6278564;22;20421;-88
2023/04/20 05:09:12;;;;;;;0.10;0.10;;;6.90;99.90;;;;;;6278978;22;20452;-87
2023/04/20 05:11:38;;;;;;;0.10;0.10;;;6.90;99.90;;;;;;6278385;22;20095;-89
2023/04/20 05:14:03;;;;;;;0.10;0.10;;;7.70;99.90;;;;;;6279637;22;20017;-89
2023/04/20 05:16:29;;;;;;;0.10;0.10;;;8.40;99.90;;;;;;6278295;22;20082;-88
2023/04/20 05:18:54;;;;;;;0.10;0.10;;;7.00;99.90;;;;;;6280396;22;20027;-90
2023/04/20 05:21:20;;;;;;;0.10;0.10;;;7.00;99.90;;;;;;6278687;22;19991;-88
2023/04/20 05:23:45;;;;;;;0.10;0.10;;;7.00;99.90;;;;;;6278658;22;20004;-89
2023/04/20 05:26:11;;;;;;;0.10;0.10;;;6.90;99.90;;;;;;6277905;22;20017;-89
2023/04/20 05:28:36;;;;;;;0.10;0.10;;;7.00;99.90;;;;;;6278473;22;20015;-90
2023/04/20 05:31:02;;;;;;;0.10;0.10;;;6.80;99.90;;;;;;6279484;22;20035;-89
2023/04/20 05:33:28;;;;;;;0.00;0.00;;;6.80;99.90;;;;;;6278996;22;19999;-89
2023/04/20 05:35:57;;;;;;;0.10;0.10;;;6.80;99.90;;;;;;6280969;22;20052;-88
2023/04/20 05:38:24;;;;;;;0.10;0.10;;;6.80;99.90;;;;;;6279460;22;20334;-90
2023/04/20 05:40:49;;;;;;;0.00;0.00;;;7.80;99.90;;;;;;6276646;22;20250;-89
2023/04/20 05:43:16;;;;;;;0.00;0.00;;;6.80;99.90;;;;;;6279237;22;20335;-89
2023/04/20 05:45:42;;;;;;;0.10;0.10;;;6.90;99.90;;;;;;6279850;22;20049;-89
2023/04/20 05:48:07;;;;;;;0.10;0.10;;;7.80;99.90;;;;;;6278979;22;19999;-88
2023/04/20 05:50:33;;;;;;;0.10;0.10;;;7.50;99.90;;;;;;6279464;22;20045;-89
2023/04/20 05:52:58;;;;;;;0.10;0.10;;;7.00;99.90;;;;;;6279041;22;20014;-89
2023/04/20 05:55:24;;;;;;;0.10;0.10;;;7.10;99.90;;;;;;6279742;22;20003;-88
2023/04/20 05:57:50;;;;;;;0.10;0.10;;;8.00;99.90;;;;;;6279036;22;20368;-89
2023/04/20 06:00:16;;;;;;;0.10;0.10;;;7.20;99.90;;;;;;6279384;22;20474;-88
2023/04/20 06:02:42;;;;;;;0.10;0.10;;;7.20;99.90;;;;;;6279117;22;20003;-88
2023/04/20 06:05:09;;;;;;;0.10;0.10;;;7.20;99.90;;;;;;6278605;22;20384;-88
2023/04/20 06:07:36;;;;;;;0.03;0.03;;;7.20;99.90;;;;;;6278801;22;20010;-89
2023/04/20 06:10:03;;;;;;;0.10;0.10;;;7.90;99.90;;;;;;6276980;22;20007;-87
2023/04/20 06:12:31;;;;;;;0.10;0.10;;;7.20;99.90;;;;;;6279758;22;20003;-88
2023/04/20 06:14:57;;;;;;;0.00;0.00;;;8.10;99.90;;;;;;6279346;22;20441;-89
2023/04/20 06:17:23;;;;;;;0.00;0.00;;;8.20;99.90;;;;;;6278047;22;20003;-89
2023/04/20 06:19:48;;;;;;;0.10;0.10;;;7.10;99.90;;;;;;6278724;22;20025;-88
2023/04/20 06:22:15;;;;;;;0.10;0.10;;;7.20;99.90;;;;;;6278760;22;20438;-87
2023/04/20 06:24:43;;;;;;;0.03;0.03;;;7.50;99.90;;;;;;6278568;22;20011;-88
2023/04/20 06:27:09;;;;;;;0.10;0.10;;;7.10;99.90;;;;;;6278870;22;20428;-88
2023/04/20 06:29:35;;;;;;;0.00;0.00;;;7.10;99.90;;;;;;6277178;22;20003;-87
2023/04/20 06:32:00;;;;;;;0.10;0.10;;;7.00;99.90;;;;;;6278915;22;20009;-87
2023/04/20 06:34:26;;;;;;;0.10;0.10;;;7.10;99.90;;;;;;6306445;22;20074;-87
2023/04/20 06:36:52;;;;;;;0.10;0.10;;;7.10;99.90;;;;;;6278797;22;20434;-89
2023/04/20 06:39:17;;;;;;;0.10;0.10;;;8.20;99.90;;;;;;6278745;22;20442;-87
2023/04/20 06:41:43;;;;;;;0.00;0.00;;;7.20;99.90;;;;;;6278570;22;20007;-88
2023/04/20 06:44:09;;;;;;;0.00;0.00;;;7.20;99.90;;;;;;6280183;22;20004;-88
2023/04/20 06:46:34;;;;;;;0.10;0.10;;;7.20;99.90;;;;;;6278261;22;20057;-87
2023/04/20 06:49:00;;;;;;;0.10;0.10;;;7.30;99.90;;;;;;6276411;22;20392;-89
2023/04/20 06:51:27;;;;;;;0.08;0.08;;;7.20;99.90;;;;;;6275930;22;20003;-89
2023/04/20 06:53:53;;;;;;;0.10;0.10;;;7.30;99.90;;;;;;6279772;22;20056;-89
2023/04/20 06:56:19;;;;;;;0.10;0.10;;;7.40;99.90;;;;;;6279839;22;20003;-88
2023/04/20 06:58:44;;;;;;;0.10;0.10;;;7.40;99.90;;;;;;6278836;22;20027;-88
2023/04/20 07:01:10;;;;;;;0.10;0.10;;;;;;;;;;6278370;22;20381;-90
2023/04/20 07:03:36;;;;;;;0.00;0.00;;;7.40;99.90;;;;;;6279521;22;20007;-89
2023/04/20 07:06:02;;;;;;;0.00;0.00;;;;;;;;;;6279759;22;20015;-89
2023/04/20 07:08:28;;;;;;;0.10;0.10;;;;;;;;;;6279236;22;20464;-88
2023/04/20 07:10:54;;;;;;;0.00;0.00;;;7.50;99.90;;;;;;6277405;22;20003;-88
2023/04/20 07:13:19;;;;;;;0.10;0.10;;;7.70;99.90;;;;;;6279195;22;20003;-88
2023/04/20 07:15:45;;;;;;;0.10;0.10;;;7.70;99.90;;;;;;6279448;22;20006;-89
2023/04/20 07:18:11;;;;;;;0.10;0.10;;;7.70;99.90;;;;;;6278917;22;20011;-87
2023/04/20 07:20:36;;;;;;;0.10;0.10;;;7.70;99.90;;;;;;6274957;22;20282;-87
2023/04/20 07:23:02;;;;;;;0.10;0.10;;;8.10;99.90;;;;;;6280553;22;20050;-88
2023/04/20 07:25:30;;;;;;;0.00;0.00;;;7.60;99.90;;;;;;6278323;22;20081;-88
2023/04/20 07:27:55;;;;;;;0.10;0.10;;;7.60;99.90;;;;;;6279674;22;20007;-88
2023/04/20 07:30:21;;;;;;;0.10;0.10;;;8.70;99.90;;;;;;6278085;22;20030;-88
2023/04/20 07:32:47;;;;;;;0.00;0.00;;;8.00;99.90;;;;;;6277793;22;20086;-89
2023/04/20 07:35:13;;;;;;;0.00;0.00;;;8.20;99.90;;;;;;6279394;22;20003;-89
2023/04/20 07:37:39;;;;;;;0.00;0.00;;;8.20;99.90;;;;;;6278854;22;20000;-87
2023/04/20 07:40:05;;;;;;;0.00;0.00;;;8.10;99.90;;;;;;6279163;22;20022;-87
2023/04/20 07:42:33;;;;;;;0.00;0.00;;;8.30;99.90;;;;;;6252625;22;20334;-87
2023/04/20 07:44:58;;;;;;;0.00;0.00;;;8.30;99.90;;;;;;6280109;22;20049;-88
2023/04/20 07:47:24;;;;;;;0.00;0.00;;;8.40;99.90;;;;;;6280312;22;20082;-89
2023/04/20 07:49:50;;;;;;;0.00;0.00;;;;;;;;;;6278830;22;20006;-89
2023/04/20 07:52:17;;;;;;;0.00;0.00;;;8.60;99.90;;;;;;6280441;22;19995;-90
2023/04/20 07:54:43;;;;;;;0.10;0.10;;;9.10;99.90;;;;;;6282781;22;20007;-90
2023/04/20 07:57:10;;;;;;;0.00;0.00;;;;;;;;;;6282224;22;19999;-89
2023/04/20 07:59:35;;;;;;;0.10;0.10;;;9.20;99.90;;;;;;6282207;22;19999;-90
2023/04/20 08:02:02;;;;;;;0.00;0.00;;;10.70;99.90;;;;;;6280235;22;19996;-90
2023/04/20 08:04:28;;;;;;;0.10;0.10;;;9.30;99.90;;;;;;6280211;22;20013;-89
2023/04/20 08:06:53;;;;;;;0.10;0.10;;;9.30;99.90;;;;;;6280363;22;20050;-89
2023/04/20 08:09:19;;;;;;;0.05;0.05;;;9.30;99.90;;;;;;6282190;22;20049;-88
2023/04/20 08:11:45;;;;;;;0.00;0.00;;;9.40;99.90;;;;;;6281327;22;20035;-88
2023/04/20 08:14:12;;;;;;;0.10;0.10;;;9.50;99.90;;;;;;6308195;22;20011;-89
2023/04/20 08:16:37;;;;;;;0.00;0.00;;;10.10;99.90;;;;;;6281159;22;19999;-89
2023/04/20 08:19:08;;;;;;;0.10;0.10;;;9.80;99.90;;;;;;6282493;22;20010;-89
2023/04/20 08:21:35;;;;;;;0.10;0.10;;;9.90;99.90;;;;;;6279221;22;19995;-89
2023/04/20 08:24:00;;;;;;;0.10;0.10;;;9.90;99.90;;;;;;6281306;22;20007;-89
2023/04/20 08:26:26;;;;;;;0.00;0.00;;;9.90;99.90;;;;;;6271595;22;20050;-91
2023/04/20 08:28:52;;;;;;;0.00;0.00;;;9.90;99.90;;;;;;6275147;22;20010;-89
2023/04/20 08:31:17;;;;;;;0.00;0.00;;;9.80;99.90;;;;;;6281279;22;20120;-88
2023/04/20 08:33:43;;;;;;;0.10;0.10;;;9.80;99.90;;;;;;6279579;22;20008;-89
2023/04/20 08:36:09;;;;;;;0.10;0.10;;;;;;;;;;6278435;22;20000;-88
2023/04/20 08:38:35;;;;;;;0.10;0.10;;;9.90;99.90;;;;;;6278983;22;20008;-88
2023/04/20 08:41:01;;;;;;;0.10;0.10;;;10.10;99.90;;;;;;6276782;22;20417;-88
2023/04/20 08:43:27;;;;;;;0.00;0.00;;;10.00;99.90;;;;;;6307043;22;20372;-89
2023/04/20 08:45:58;;;;;;;0.00;0.00;;;11.40;99.90;;;;;;6279168;22;20010;-87
2023/04/20 08:48:27;;;;;;;0.00;0.00;;;10.30;99.90;;;;;;6277768;22;20321;-87
2023/04/20 08:50:54;;;;;;;0.10;0.10;;;11.00;99.90;;;;;;6277955;22;19999;-88
2023/04/20 08:53:20;;;;;;;0.10;0.10;;;10.30;99.90;;;;;;6279932;22;20003;-87
2023/04/20 08:55:48;;;;;;;0.00;0.00;;;10.50;99.90;;;;;;6276622;22;20443;-88
2023/04/20 08:58:14;;;;;;;0.10;0.10;;;10.50;99.90;;;;;;6280141;22;20380;-88
2023/04/20 09:00:49;;;;;;;0.10;0.10;;;10.60;99.90;;;;;;6281784;22;20035;-88
2023/04/20 09:03:15;;;;;;;0.00;0.00;;;10.70;99.90;;;;;;6280259;22;20429;-88
2023/04/20 09:05:43;;;;;;;0.00;0.00;;;11.50;99.90;;;;;;6278985;22;20011;-88
2023/04/20 09:08:11;;;;;;;0.10;0.10;;;11.40;99.90;;;;;;6281580;22;20437;-86
2023/04/20 09:10:41;;;;;;;0.00;0.00;;;11.00;99.40;;;;;;6280223;22;19999;-88
2023/04/20 09:13:08;;;;;;;;;;;12.00;99.90;;;;;;6282337;22;20007;-88
2023/04/20 09:15:34;;;;;;;0.00;0.00;;;11.20;98.90;;;;;;6252903;22;20314;-88
2023/04/20 09:18:11;;;;;;;0.10;0.10;;;11.20;99.10;;;;;;6305747;22;20090;-86
2023/04/20 09:20:37;;;;;;;0.10;0.10;;;;;;;;;;6278935;22;20402;-89
2023/04/20 09:23:13;;;;;;;0.00;0.00;;;11.30;98.10;;;;;;6282375;22;20011;-89
2023/04/20 09:25:41;;;;;;;0.00;0.00;;;11.40;98.50;;;;;;6280828;22;20012;-88
2023/04/20 09:28:07;;;;;;;0.10;0.10;;;11.30;98.20;;;;;;6280388;22;20003;-89
2023/04/20 09:30:42;;;;;;;0.00;0.00;;;11.00;98.80;;;;;;6281775;22;20086;-90
2023/04/20 09:33:09;;;;;;;0.00;0.00;;;11.40;98.70;;;;;;6281172;22;20011;-88
2023/04/20 09:35:36;;;;;;;0.00;0.00;;;11.30;99.20;;;;;;6280503;22;20003;-89
2023/04/20 09:38:02;;;;;;;0.00;0.00;;;11.30;99.40;;;;;;6282005;22;20026;-89
2023/04/20 09:40:32;;;;;;;0.00;0.00;;;11.40;99.00;;;;;;6279475;22;20364;-88
2023/04/20 09:43:03;;;;;;;0.00;0.00;;;11.30;99.40;;;;;;6275000;22;20010;-88
2023/04/20 09:45:29;;;;;;;0.00;0.00;;;11.40;98.80;;;;;;6282469;22;20014;-88
2023/04/20 09:47:55;;;;;;;0.08;0.08;;;11.50;98.70;;;;;;6283130;22;20007;-90
2023/04/20 09:50:20;;;;;;;0.00;0.00;;;11.50;98.80;;;;;;6281725;22;20027;-89
2023/04/20 09:52:49;;;;;;;0.00;0.00;;;;;;;;;;6282832;22;20452;-90
2023/04/20 09:55:15;;;;;;;0.00;0.00;;;11.70;97.90;;;;;;6281788;22;20446;-89
2023/04/20 09:57:41;;;;;;;0.00;0.00;;;11.80;98.20;;;;;;6283642;22;20007;-89
2023/04/20 10:00:11;;;;;;;0.00;0.00;;;11.80;97.60;;;;;;6281889;22;20007;-89
2023/04/20 10:02:37;;;;;;;0.00;0.00;;;11.70;98.70;;;;;;6281508;22;20003;-89
2023/04/20 10:05:03;;;;;;;0.00;0.00;;;11.90;98.90;;;;;;6281558;22;20080;-90
2023/04/20 10:07:31;;;;;;;0.00;0.00;;;12.00;99.10;;;;;;6281754;22;19999;-89
2023/04/20 10:10:17;;;;;;;0.00;0.00;;;12.20;99.00;;;;;;6280619;22;20057;-88
2023/04/20 10:12:47;;;;;;;0.00;0.00;;;15.10;97.90;;;;;;6281110;22;20082;-87
2023/04/20 10:15:13;;;;;;;;;;;12.10;97.80;;;;;;6280459;22;20254;-89
2023/04/20 10:17:38;;;;;;;0.00;0.00;;;12.10;97.70;;;;;;6280470;22;19922;-91
2023/04/20 10:20:20;;;;;;;0.00;0.00;;;12.10;96.70;;;;;;6278205;22;20003;-91
2023/04/20 10:22:46;;;;;;;0.00;0.00;;;12.00;97.40;;;;;;6278903;22;20315;-88
2023/04/20 10:25:18;;;;;;;0.00;0.00;;;11.80;97.60;;;;;;6280731;22;20042;-89
2023/04/20 10:27:58;;;;;;;0.00;0.00;;;11.90;97.60;;;;;;6306215;22;20335;-86
2023/04/20 10:30:25;;;;;;;;;;;12.00;97.70;;;;;;6280945;22;20105;-85
2023/04/20 10:33:02;;;;;;;0.00;0.00;;;12.00;97.50;;;;;;6306455;22;19955;-88
2023/04/20 10:35:28;;;;;;;0.00;0.00;;;12.60;97.30;;;;;;6280973;22;19999;-88
2023/04/20 10:37:54;;;;;;;0.00;0.00;;;12.10;98.10;;;;;;6280581;22;20011;-90
2023/04/20 10:40:26;;;;;;;0.00;0.00;;;12.40;97.20;;;;;;6280324;22;20004;-88
2023/04/20 10:42:52;;;;;;;0.00;0.00;;;12.90;96.30;;;;;;6278856;22;20665;-88
2023/04/20 10:45:17;;;;;;;0.00;0.00;;;12.80;96.50;;;;;;6279315;22;20037;-88
2023/04/20 10:47:44;;;;;;;0.00;0.00;;;12.90;95.80;;;;;;6281629;22;20011;-87
2023/04/20 10:50:14;;;;;;;0.00;0.00;;;13.00;95.00;;;;;;6280240;22;20010;-88
2023/04/20 10:52:41;;;;;;;0.00;0.00;;;12.70;94.60;;;;;;6305942;22;19996;-88
2023/04/20 10:55:19;;;;;;;0.00;0.00;;;12.60;94.40;;;;;;6278666;22;20003;-89
2023/04/20 10:57:44;;;;;;;0.00;0.00;;;12.60;95.00;;;;;;6279301;22;20003;-88
2023/04/20 11:00:29;;;;;;;0.00;0.00;;;12.60;94.50;;;;;;6280664;22;20509;-88
2023/04/20 11:02:56;;;;;;;0.00;0.00;;;12.60;94.00;;;;;;6278889;22;20389;-89
2023/04/20 11:05:25;;;;;;;0.00;0.00;;;12.70;94.10;;;;;;6272660;22;20068;-88
2023/04/20 11:07:58;;;;;;;0.00;0.00;;;12.50;93.30;;;;;;6275442;22;20082;-90
2023/04/20 11:10:40;;;;;;;0.10;0.10;;;12.30;94.20;;;;;;6276459;22;20438;-89
2023/04/20 11:13:17;;;;;;;0.00;0.00;;;12.20;94.10;;;;;;6278268;22;20446;-87
2023/04/20 11:15:43;;;;;;;0.00;0.00;;;12.10;93.90;;;;;;6277512;22;20450;-88
2023/04/20 11:18:10;;;;;;;0.00;0.00;;;12.40;95.90;;;;;;6276364;22;20030;-85
2023/04/20 11:20:36;;;;;;;0.00;0.00;;;12.70;95.10;;;;;;6277136;22;20046;-85
2023/04/20 11:23:03;;;;;;;0.00;0.00;;;12.80;94.20;;;;;;6252011;22;20442;-87
2023/04/20 11:25:29;;;;;;;0.00;0.00;;;12.90;92.90;;;;;;6277365;22;20065;-87
2023/04/20 11:28:06;;;;;;;0.00;0.00;;;12.80;92.50;;;;;;6305136;22;20011;-88
2023/04/20 11:30:41;;;;;;;0.00;0.00;;;13.00;95.00;;;;;;6278982;22;20050;-88
2023/04/20 11:33:07;;;;;;;0.00;0.00;;;13.00;91.40;;;;;;6277428;22;20152;-87
2023/04/20 11:35:41;;;;;;;0.00;0.00;;;13.20;92.60;;;;;;6303713;22;20524;-89
2023/04/20 11:38:07;;;;;;;0.00;0.00;;;13.40;91.40;;;;;;6279245;22;20014;-89
2023/04/20 11:40:32;;;;;;;0.00;0.00;;;13.60;90.70;;;;;;6278635;22;20003;-89
2023/04/20 11:43:03;;;;;;;0.00;0.00;;;13.40;90.40;;;;;;6277824;22;20010;-89
2023/04/20 11:45:32;;;;;;;0.00;0.00;;;13.30;91.80;;;;;;6278039;22;20034;-87
2023/04/20 11:47:58;;;;;;;0.00;0.00;;;13.30;92.00;;;;;;6277853;22;20085;-87
2023/04/20 11:50:24;;;;;;;0.00;0.00;;;13.70;92.30;;;;;;6277940;22;20015;-89
2023/04/20 11:52:50;;;;;;;0.00;0.00;;;13.90;90.70;;;;;;6279460;22;20515;-87
2023/04/20 11:55:15;;;;;;;0.00;0.00;;;13.80;90.10;;;;;;6276524;22;20338;-88
2023/04/20 11:57:41;;;;;;;0.00;0.00;;;13.90;90.70;;;;;;6278290;22;20330;-88
2023/04/20 12:00:07;;;;;;;0.00;0.00;;;13.80;90.10;;;;;;6279139;22;20006;-87
2023/04/20 12:02:33;;;;;;;0.00;0.00;;;13.30;90.50;;;;;;6277900;22;20007;-88
2023/04/20 12:05:01;;;;;;;0.00;0.00;;;;;;;;;;6277563;22;20003;-87
2023/04/20 12:07:26;;;;;;;0.00;0.00;;;13.30;90.10;;;;;;6277474;22;20204;-88
2023/04/20 12:09:52;;;;;;;0.00;0.00;;;13.30;90.90;;;;;;6279231;22;20040;-88
2023/04/20 12:12:18;;;;;;;0.00;0.00;;;;;;;;;;6277730;22;20010;-91
2023/04/20 12:14:44;;;;;;;0.00;0.00;;;13.60;90.80;;;;;;6279470;22;20026;-90
2023/04/20 12:17:10;;;;;;;0.00;0.00;;;;;;;;;;6274291;22;19996;-89
2023/04/20 12:19:35;;;;;;;0.00;0.00;;;12.90;90.50;;;;;;6277721;22;19999;-87
2023/04/20 12:22:01;;;;;;;0.00;0.00;;;12.70;91.80;;;;;;6277215;22;20003;-90
2023/04/20 12:24:26;;;;;;;0.00;0.00;;;12.60;91.40;;;;;;6277442;22;20014;-91
2023/04/20 12:26:53;;;;;;;0.00;0.00;;;;;;;;;;6278239;22;20003;-88
2023/04/20 12:29:18;;;;;;;0.00;0.00;;;12.80;91.60;;;;;;6276998;22;20326;-87
2023/04/20 12:31:44;;;;;;;0.00;0.00;;;;;;;;;;6277802;22;20046;-90
2023/04/20 12:34:10;;;;;;;0.00;0.00;;;13.20;91.60;;;;;;6276737;22;20011;-88
2023/04/20 12:36:36;;;;;;;0.00;0.00;;;;;;;;;;6278894;22;20034;-89
2023/04/20 12:39:03;;;;;;;0.00;0.00;;;;;;;;;;6280685;22;20055;-90
2023/04/20 12:41:28;;;;;;;0.00;0.00;;;13.10;90.90;;;;;;6279974;22;20359;-90
2023/04/20 12:43:54;;;;;;;0.00;0.00;;;15.00;91.70;;;;;;6279600;22;20018;-90
2023/04/20 12:46:19;;;;;;;0.00;0.00;;;13.20;91.70;;;;;;6281221;22;20334;-88
2023/04/20 12:48:45;;;;;;;0.00;0.00;;;13.50;92.10;;;;;;6281212;22;20007;-90
2023/04/20 12:51:11;;;;;;;0.00;0.00;;;13.40;90.70;;;;;;6278426;22;20084;-89
2023/04/20 12:53:37;;;;;;;0.00;0.00;;;;;;;;;;6277338;22;20007;-88
2023/04/20 12:56:03;;;;;;;0.00;0.00;;;13.20;91.20;;;;;;6278627;22;19999;-91
2023/04/20 12:58:29;;;;;;;0.00;0.00;;;13.70;92.40;;;;;;6279931;22;20320;-88
2023/04/20 13:00:55;;;;;;;0.00;0.00;;;13.30;91.10;;;;;;6278646;22;20005;-89
2023/04/20 13:03:20;;;;;;;0.00;0.00;;;13.60;91.30;;;;;;6280415;22;20018;-89
2023/04/20 13:05:46;;;;;;;0.00;0.00;;;13.70;90.70;;;;;;6279663;22;20014;-89
2023/04/20 13:08:11;;;;;;;0.00;0.00;;;13.80;91.40;;;;;;6280187;22;20377;-88
2023/04/20 13:10:39;;;;;;;0.00;0.00;;;13.90;90.30;;;;;;6281677;22;20003;-88
2023/04/20 13:13:05;;;;;;;0.00;0.00;;;;;;;;;;6308455;22;20006;-87
2023/04/20 13:15:31;;;;;;;0.00;0.00;;;13.50;90.20;;;;;;6280997;22;20427;-90
2023/04/20 13:17:56;;;;;;;0.00;0.00;;;13.60;90.90;;;;;;6308407;22;20022;-88
2023/04/20 13:20:28;;;;;;;0.00;0.00;;;13.80;90.80;;;;;;6279273;22;20039;-88
2023/04/20 13:22:54;;;;;;;0.00;0.00;;;13.60;90.70;;;;;;6278442;22;20464;-89
2023/04/20 13:25:20;;;;;;;0.00;0.00;;;13.70;90.00;;;;;;6280047;22;20014;-88
2023/04/20 13:27:45;;;;;;;0.00;0.00;;;13.80;89.60;;;;;;6281190;22;20338;-89
2023/04/20 13:30:12;;;;;;;0.00;0.00;;;14.00;89.10;;;;;;6283185;22;20003;-92
2023/04/20 13:32:37;;;;;;;0.00;0.00;;;14.40;88.40;;;;;;6282883;22;20007;-89
2023/04/20 13:35:03;;;;;;;0.00;0.00;;;14.30;88.90;;;;;;6281129;22;20068;-89
2023/04/20 13:37:31;;;;;;;0.00;0.00;;;;;;;;;;6281459;22;20077;-88
2023/04/20 13:39:57;;;;;;;0.00;0.00;;;14.30;85.80;;;;;;6280145;22;19999;-88
2023/04/20 13:42:23;;;;;;;0.00;0.00;;;14.10;87.10;;;;;;6280770;22;20006;-88
2023/04/20 13:44:48;;;;;;;0.00;0.00;;;14.40;86.70;;;;;;6281682;22;20090;-89
2023/04/20 13:47:14;;;;;;;0.00;0.00;;;14.70;82.80;;;;;;6283352;22;20014;-89
2023/04/20 13:49:39;;;;;;;0.00;0.00;;;14.70;83.10;;;;;;6281177;22;19999;-88
2023/04/20 13:52:05;;;;;;;0.00;0.00;;;15.10;84.10;;;;;;6280744;22;20056;-90
2023/04/20 13:54:31;;;;;;;0.00;0.00;;;15.30;82.10;;;;;;6274991;22;20781;-87
2023/04/20 13:56:56;;;;;;;0.00;0.00;;;15.60;84.00;;;;;;6274346;22;20083;-87
2023/04/20 13:59:23;;;;;;;0.00;0.00;;;15.60;81.80;;;;;;6303750;22;20016;-89
2023/04/20 14:01:48;;;;;;;0.00;0.00;;;16.60;81.50;;;;;;6302714;22;20102;-88
2023/04/20 14:04:15;;;;;;;0.00;0.00;;;;;;;;;;6277289;22;20000;-89
2023/04/20 14:06:41;;;;;;;0.00;0.00;;;15.20;81.50;;;;;;6275425;22;20018;-88
2023/04/20 14:09:06;;;;;;;0.00;0.00;;;15.00;84.10;;;;;;6278479;22;20137;-88
2023/04/20 14:11:32;;;;;;;0.00;0.00;;;15.00;83.00;;;;;;6272238;22;20050;-88
2023/04/20 14:13:57;;;;;;;0.00;0.00;;;15.00;82.60;;;;;;6274711;22;20007;-87
2023/04/20 14:16:24;;;;;;;0.00;0.00;;;14.90;82.80;;;;;;6270917;22;20010;-89
2023/04/20 14:18:49;;;;;;;0.00;0.00;;;15.00;82.70;;;;;;6266375;22;20082;-88
2023/04/20 14:21:15;;;;;;;0.00;0.00;;;15.10;82.40;;;;;;6275115;22;20395;-88
2023/04/20 14:23:40;;;;;;;0.00;0.00;;;14.80;82.50;;;;;;6275514;22;20068;-88
2023/04/20 14:26:06;;;;;;;0.10;0.10;;;14.70;82.60;;;;;;6273804;22;20086;-88
2023/04/20 14:28:32;;;;;;;0.00;0.00;;;14.70;85.00;;;;;;6277699;22;20074;-88
2023/04/20 14:30:59;;;;;;;0.00;0.00;;;14.90;83.30;;;;;;6276763;22;20003;-89
2023/04/20 14:33:25;;;;;;;0.00;0.00;;;14.90;84.00;;;;;;6303684;22;20029;-88
2023/04/20 14:35:50;;;;;;;0.00;0.00;;;14.90;84.40;;;;;;6280608;22;20047;-86
2023/04/20 14:38:16;;;;;;;0.00;0.00;;;15.10;84.50;;;;;;6286829;22;20082;-88
2023/04/20 14:40:41;;;;;;;0.00;0.00;;;15.20;83.50;;;;;;6304724;22;20025;-88
2023/04/20 14:43:07;;;;;;;0.00;0.00;;;15.20;81.80;;;;;;6274397;22;20288;-88
2023/04/20 14:45:32;;;;;;;0.00;0.00;;;14.90;81.70;;;;;;6276385;22;20430;-87
2023/04/20 14:47:58;;;;;;;0.00;0.00;;;14.80;83.60;;;;;;6277239;22;20084;-87
2023/04/20 14:50:27;;;;;;;0.00;0.00;;;14.70;84.10;;;;;;6280702;22;20481;-88
2023/04/20 14:52:53;;;;;;;0.00;0.00;;;;;;;;;;6278776;22;20003;-88
2023/04/20 14:55:22;;;;;;;0.00;0.00;;;14.20;84.20;;;;;;6279599;22;20422;-88